createdAt,value
2019-04-16T00:03:37.312Z,14.58
2019-04-16T00:06:08.310Z,13.98
2019-04-16T00:08:48.352Z,14.15
2019-04-16T00:11:25.205Z,13.38
2019-04-16T00:14:03.028Z,13.65
2019-04-16T00:16:30.017Z,14.55
2019-04-16T00:19:04.415Z,14.35
2019-04-16T00:21:38.474Z,15.05
2019-04-16T00:24:10.596Z,14.03
2019-04-16T00:26:40.051Z,14.75
2019-04-16T00:29:09.411Z,15.35
2019-04-16T00:31:39.340Z,14.55
2019-04-16T00:34:13.399Z,14.68
2019-04-16T00:36:39.821Z,14.53
2019-04-16T00:39:09.195Z,15.10
2019-04-16T00:41:38.562Z,14.87
2019-04-16T00:44:07.989Z,14.93
2019-04-16T00:46:37.443Z,15.20
2019-04-16T00:49:06.809Z,15.85
2019-04-16T00:51:36.168Z,16.00
2019-04-16T00:54:09.911Z,16.73
2019-04-16T00:56:36.611Z,15.98
2019-04-16T00:59:05.992Z,15.68
2019-04-16T01:01:35.431Z,15.83
2019-04-16T01:04:05.532Z,17.10
2019-04-16T01:06:34.505Z,16.30
2019-04-16T01:09:05.856Z,16.10
2019-04-16T01:11:35.331Z,16.40
2019-04-16T01:14:04.983Z,16.70
2019-04-16T01:16:34.346Z,15.93
2019-04-16T01:19:03.714Z,16.57
2019-04-16T01:21:33.159Z,15.83
2019-04-16T01:24:02.541Z,15.60
2019-04-16T01:26:32.582Z,17.07
2019-04-16T01:31:42.767Z,16.15
2019-04-16T01:34:30.175Z,16.40
2019-04-16T01:37:01.174Z,16.40
2019-04-16T01:39:32.194Z,16.42
2019-04-16T01:42:01.570Z,16.48
2019-04-16T01:44:30.938Z,16.35
2019-04-16T01:47:03.471Z,17.05
2019-04-16T01:49:31.447Z,16.93
2019-04-16T01:52:00.792Z,16.77
2019-04-16T01:54:30.223Z,17.07
2019-04-16T01:57:00.707Z,16.55
2019-04-16T01:59:30.236Z,16.85
2019-04-16T02:01:59.831Z,17.15
2019-04-16T02:04:29.305Z,16.67
2019-04-16T02:06:58.662Z,17.02
2019-04-16T02:09:28.049Z,17.23
2019-04-16T02:11:57.401Z,18.17
2019-04-16T02:14:26.758Z,18.27
2019-04-16T02:16:56.719Z,18.35
2019-04-16T02:19:26.235Z,18.57
2019-04-16T02:21:55.600Z,19.65
2019-04-16T02:24:25.033Z,17.40
2019-04-16T02:26:55.030Z,18.95
2019-04-16T02:29:29.412Z,17.90
2019-04-16T02:31:56.254Z,18.27
2019-04-16T02:34:25.626Z,17.45
2019-04-16T02:37:00.917Z,18.50
2019-04-16T02:39:46.549Z,17.90
2019-04-16T02:41:58.590Z,18.32
2019-04-16T02:44:28.157Z,17.92
2019-04-16T02:46:57.516Z,19.15
2019-04-16T02:49:26.957Z,18.40
2019-04-16T02:52:03.786Z,19.45
2019-04-16T03:00:08.467Z,19.55
2019-04-16T03:02:42.429Z,19.75
2019-04-16T03:05:13.532Z,18.73
2019-04-16T03:07:42.962Z,20.00
2019-04-16T03:10:13.903Z,20.10
2019-04-16T03:12:43.530Z,19.98
2019-04-16T03:15:14.711Z,20.82
2019-04-16T03:17:45.379Z,22.62
2019-04-16T03:20:20.868Z,21.02
2019-04-16T03:22:50.332Z,20.60
2019-04-16T03:25:19.773Z,21.45
2019-04-16T03:27:51.484Z,20.80
2019-04-16T03:30:20.229Z,21.15
2019-04-16T03:32:50.548Z,21.37
2019-04-16T03:35:25.543Z,19.75
2019-04-16T03:37:51.062Z,20.40
2019-04-16T03:40:24.730Z,20.70
2019-04-16T03:42:51.600Z,21.10
2019-04-16T03:45:20.961Z,21.70
2019-04-16T03:47:51.422Z,21.07
2019-04-16T03:50:21.451Z,20.70
2019-04-16T03:52:50.882Z,18.62
2019-04-16T03:55:25.034Z,18.48
2019-04-16T03:57:51.339Z,19.27
2019-04-16T04:00:20.792Z,18.50
2019-04-16T04:02:53.904Z,19.42
2019-04-16T04:05:21.395Z,18.07
2019-04-16T04:07:50.753Z,18.15
2019-04-16T04:10:30.582Z,18.60
2019-04-16T04:12:51.337Z,17.90
2019-04-16T04:15:26.022Z,18.77
2019-04-16T04:17:51.943Z,18.15
2019-04-16T04:20:21.367Z,18.65
2019-04-16T04:22:50.837Z,18.30
2019-04-16T04:25:20.269Z,18.87
2019-04-16T04:27:49.692Z,19.32
2019-04-16T04:30:20.676Z,19.85
2019-04-16T04:32:50.029Z,20.00
2019-04-16T04:35:22.035Z,20.30
2019-04-16T04:37:50.451Z,20.60
2019-04-16T04:40:20.136Z,21.10
2019-04-16T04:42:49.583Z,21.62
2019-04-16T04:45:19.038Z,20.32
2019-04-16T04:47:51.522Z,20.43
2019-04-16T04:50:19.470Z,20.00
2019-04-16T04:52:48.885Z,19.57
2019-04-16T04:55:18.507Z,20.05
2019-04-16T04:57:47.874Z,20.85
2019-04-16T05:00:17.209Z,19.30
2019-04-16T05:02:46.561Z,19.80
2019-04-16T05:05:25.697Z,18.70
2019-04-16T05:07:54.544Z,18.85
2019-04-16T05:10:23.933Z,18.65
2019-04-16T05:12:53.828Z,18.65
2019-04-16T05:15:23.358Z,18.60
2019-04-16T05:17:52.715Z,18.42
2019-04-16T05:20:22.162Z,19.25
2019-04-16T05:22:53.585Z,19.92
2019-04-16T05:25:22.697Z,17.37
2019-04-16T05:27:52.040Z,17.50
2019-04-16T05:30:22.093Z,18.73
2019-04-16T05:32:51.622Z,19.32
2019-04-16T05:35:20.988Z,18.02
2019-04-16T05:37:51.569Z,19.45
2019-04-16T05:40:21.598Z,20.97
2019-04-16T05:42:52.609Z,20.10
2019-04-16T05:45:22.190Z,17.87
2019-04-16T05:47:51.561Z,18.32
2019-04-16T05:50:20.989Z,17.90
2019-04-16T05:52:50.401Z,18.40
2019-04-16T05:58:02.188Z,16.67
2019-04-16T06:00:33.192Z,16.17
2019-04-16T06:03:02.594Z,16.87
2019-04-16T06:05:32.032Z,15.88
2019-04-16T06:08:13.304Z,17.73
2019-04-16T06:10:42.735Z,18.23
2019-04-16T06:13:16.813Z,17.52
2019-04-16T06:15:54.064Z,18.70
2019-04-16T06:18:28.064Z,17.40
2019-04-16T06:21:11.400Z,17.82
2019-04-16T06:23:48.507Z,17.75
2019-04-16T06:26:22.406Z,17.37
2019-04-16T06:28:56.395Z,17.67
2019-04-16T06:31:36.250Z,17.67
2019-04-16T06:34:17.176Z,18.25
2019-04-16T06:36:51.160Z,17.87
2019-04-16T06:39:22.165Z,18.23
2019-04-16T06:42:11.167Z,17.90
2019-04-16T06:44:48.385Z,17.80
2019-04-16T06:47:34.487Z,16.55
2019-04-16T06:50:09.661Z,17.65
2019-04-16T06:52:57.091Z,17.62
2019-04-16T06:55:28.107Z,18.37
2019-04-16T07:00:51.220Z,17.73
2019-04-16T07:01:41.802Z,18.50
2019-04-16T07:03:25.834Z,18.10
2019-04-16T07:05:54.980Z,18.20
2019-04-16T07:08:37.531Z,18.00
2019-04-16T07:11:04.154Z,16.87
2019-04-16T07:13:33.610Z,17.52
2019-04-16T07:16:03.069Z,16.15
2019-04-16T07:18:32.434Z,17.67
2019-04-16T07:21:01.820Z,16.67
2019-04-16T07:23:31.206Z,17.67
2019-04-16T07:26:03.542Z,18.45
2019-04-16T07:28:42.867Z,16.90
2019-04-16T07:34:08.993Z,13.13
2019-04-16T07:36:40.014Z,13.18
2019-04-16T07:39:28.726Z,14.33
2019-04-16T07:41:49.799Z,15.50
2019-04-16T07:44:20.806Z,15.90
2019-04-16T07:46:54.798Z,16.40
2019-04-16T07:49:38.070Z,14.15
2019-04-16T07:52:12.165Z,13.88
2019-04-16T07:54:58.482Z,14.87
2019-04-16T07:57:27.875Z,14.60
2019-04-16T07:59:57.336Z,14.95
2019-04-16T08:02:26.797Z,15.53
2019-04-16T08:04:56.458Z,16.60
2019-04-16T08:07:25.918Z,16.82
2019-04-16T08:09:55.365Z,17.02
2019-04-16T08:12:30.473Z,18.12
2019-04-16T08:15:12.927Z,19.27
2019-04-16T08:17:29.806Z,18.23
2019-04-16T08:19:59.188Z,17.02
2019-04-16T08:22:28.790Z,16.55
2019-04-16T08:25:03.555Z,14.78
2019-04-16T08:27:30.908Z,14.38
2019-04-16T08:30:03.712Z,14.03
2019-04-16T08:32:31.506Z,13.15
2019-04-16T08:35:00.870Z,12.75
2019-04-16T08:37:30.315Z,12.82
2019-04-16T08:39:59.889Z,13.85
2019-04-16T08:42:38.098Z,14.40
2019-04-16T08:45:00.454Z,14.13
2019-04-16T08:47:29.914Z,13.53
2019-04-16T08:49:59.370Z,13.35
2019-04-16T08:52:28.933Z,14.75
2019-04-16T08:54:58.467Z,14.50
2019-04-16T08:57:31.624Z,14.55
2019-04-16T08:59:59.229Z,14.47
2019-04-16T09:02:29.125Z,14.85
2019-04-16T09:04:58.811Z,15.03
2019-04-16T09:10:23.736Z,14.85
2019-04-16T09:13:03.466Z,16.32
2019-04-16T09:15:27.825Z,13.60
2019-04-16T09:18:10.820Z,13.75
2019-04-16T09:20:41.163Z,12.85
2019-04-16T09:23:10.544Z,12.70
2019-04-16T09:25:47.796Z,13.75
2019-04-16T09:28:25.606Z,13.28
2019-04-16T09:31:06.480Z,11.75
2019-04-16T09:33:52.800Z,11.50
2019-04-16T09:36:40.249Z,12.13
2019-04-16T09:39:11.371Z,11.73
2019-04-16T09:41:42.201Z,13.05
2019-04-16T09:44:11.579Z,12.60
2019-04-16T09:46:59.407Z,12.45
2019-04-16T09:49:12.528Z,12.90
2019-04-16T09:51:42.380Z,13.32
2019-04-16T09:54:13.575Z,12.63
2019-04-16T09:56:43.275Z,13.25
2019-04-16T09:59:16.188Z,12.58
2019-04-16T10:01:47.043Z,11.28
2019-04-16T10:04:18.315Z,12.60
2019-04-16T10:06:48.333Z,11.15
2019-04-16T10:09:21.728Z,10.80
2019-04-16T10:11:49.108Z,10.88
2019-04-16T10:14:18.572Z,11.57
2019-04-16T10:16:48.069Z,10.80
2019-04-16T10:19:17.809Z,11.28
2019-04-16T10:21:53.358Z,11.30
2019-04-16T10:24:37.985Z,12.47
2019-04-16T10:27:09.040Z,12.10
2019-04-16T10:29:38.540Z,12.13
2019-04-16T10:32:07.960Z,11.97
2019-04-16T10:34:37.317Z,10.43
2019-04-16T10:37:07.067Z,11.10
2019-04-16T10:39:38.223Z,11.57
2019-04-16T10:42:25.568Z,10.50
2019-04-16T10:47:53.632Z,9.58
2019-04-16T10:50:36.460Z,10.15
2019-04-16T10:53:24.103Z,10.08
2019-04-16T10:56:04.443Z,9.38
2019-04-16T10:58:44.588Z,8.25
2019-04-16T11:01:15.596Z,9.48
2019-04-16T11:03:46.584Z,9.80
2019-04-16T11:06:29.908Z,9.55
2019-04-16T11:08:59.286Z,9.48
2019-04-16T11:11:28.710Z,10.18
2019-04-16T11:14:00.160Z,10.43
2019-04-16T11:16:29.431Z,8.63
2019-04-16T11:18:59.132Z,7.78
2019-04-16T11:21:28.468Z,9.03
2019-04-16T11:23:57.952Z,8.63
2019-04-16T11:26:27.457Z,8.93
2019-04-16T11:31:26.414Z,9.93
2019-04-16T11:33:55.803Z,9.73
2019-04-16T11:36:30.467Z,9.60
2019-04-16T11:38:56.455Z,11.33
2019-04-16T11:41:25.815Z,10.50
2019-04-16T11:43:55.255Z,9.95
2019-04-16T11:46:24.827Z,8.88
2019-04-16T11:48:54.356Z,9.95
2019-04-16T11:51:23.793Z,7.90
2019-04-16T11:53:53.367Z,7.92
2019-04-16T11:56:22.943Z,9.23
2019-04-16T11:58:52.618Z,8.85
2019-04-16T12:01:42.091Z,8.88
2019-04-16T12:04:15.654Z,8.55
2019-04-16T12:06:55.039Z,8.73
2019-04-16T12:09:26.040Z,8.58
2019-04-16T12:12:06.316Z,8.43
2019-04-16T12:17:05.413Z,7.10
2019-04-16T12:19:54.775Z,7.90
2019-04-16T12:22:34.713Z,7.60
2019-04-16T12:25:06.511Z,8.18
2019-04-16T12:27:37.588Z,7.30
2019-04-16T12:30:09.576Z,8.15
2019-04-16T12:32:49.399Z,7.45
2019-04-16T12:35:23.235Z,7.50
2019-04-16T12:38:14.756Z,7.40
2019-04-16T12:40:44.498Z,6.45
2019-04-16T12:43:31.803Z,6.58
2019-04-16T12:46:17.848Z,6.65
2019-04-16T12:48:54.755Z,8.17
2019-04-16T12:51:39.815Z,8.00
2019-04-16T12:54:19.655Z,7.80
2019-04-16T12:56:56.792Z,7.58
2019-04-16T12:59:33.833Z,7.70
2019-04-16T13:02:14.253Z,6.65
2019-04-16T13:04:48.302Z,6.72
2019-04-16T13:07:18.091Z,6.72
2019-04-16T13:10:05.408Z,5.90
2019-04-16T13:12:42.375Z,5.75
2019-04-16T13:15:29.960Z,6.10
2019-04-16T13:18:03.879Z,5.75
2019-04-16T13:20:56.948Z,6.37
2019-04-16T13:23:38.092Z,6.22
2019-04-16T13:26:27.391Z,6.72
2019-04-16T13:28:58.245Z,7.10
2019-04-16T13:31:27.695Z,7.15
2019-04-16T13:33:57.129Z,7.70
2019-04-16T13:36:27.872Z,7.78
2019-04-16T13:39:05.250Z,6.33
2019-04-16T13:41:34.644Z,7.58
2019-04-16T13:44:09.024Z,7.05
2019-04-16T13:46:36.786Z,6.20
2019-04-16T13:49:14.018Z,6.40
2019-04-16T13:51:45.050Z,5.80
2019-04-16T13:54:18.951Z,5.58
2019-04-16T13:56:51.588Z,6.22
2019-04-16T13:59:22.733Z,6.30
2019-04-16T14:01:59.002Z,6.10
2019-04-16T14:04:43.076Z,5.23
2019-04-16T14:07:12.757Z,5.35
2019-04-16T14:09:44.303Z,5.40
2019-04-16T14:12:13.497Z,5.83
2019-04-16T14:14:42.935Z,5.40
2019-04-16T14:17:17.622Z,5.70
2019-04-16T14:19:45.299Z,5.67
2019-04-16T14:22:14.699Z,5.15
2019-04-16T14:24:44.139Z,5.60
2019-04-16T14:27:14.466Z,5.70
2019-04-16T14:29:43.447Z,5.90
2019-04-16T14:32:13.131Z,5.80
2019-04-16T14:34:47.267Z,5.45
2019-04-16T14:37:16.744Z,5.50
2019-04-16T14:40:04.423Z,5.80
2019-04-16T14:42:34.067Z,5.55
2019-04-16T14:45:09.392Z,5.97
2019-04-16T14:47:38.767Z,6.78
2019-04-16T14:50:08.452Z,7.47
2019-04-16T14:52:37.764Z,5.97
2019-04-16T14:55:12.338Z,6.72
2019-04-16T14:57:59.669Z,6.53
2019-04-16T15:00:33.561Z,6.17
2019-04-16T15:03:04.581Z,8.08
2019-04-16T15:05:35.564Z,9.08
2019-04-16T15:08:23.024Z,7.47
2019-04-16T15:10:54.024Z,6.60
2019-04-16T15:13:30.739Z,8.98
2019-04-16T15:16:10.853Z,6.22
2019-04-16T15:18:43.436Z,5.28
2019-04-16T15:21:23.487Z,8.40
2019-04-16T15:24:00.848Z,5.42
2019-04-16T15:26:52.301Z,7.75
2019-04-16T15:29:23.447Z,7.20
2019-04-16T15:31:53.703Z,7.00
2019-04-16T15:34:24.705Z,5.90
2019-04-16T15:39:44.159Z,6.53
2019-04-16T15:42:26.993Z,6.95
2019-04-16T15:45:00.950Z,5.45
2019-04-16T15:47:32.737Z,4.97
2019-04-16T15:50:06.896Z,4.50
2019-04-16T15:52:46.825Z,3.95
2019-04-16T15:55:24.134Z,3.98
2019-04-16T15:57:59.043Z,4.33
2019-04-16T16:00:32.994Z,3.98
2019-04-16T16:03:03.990Z,3.30
2019-04-16T16:05:41.204Z,3.98
2019-04-16T16:13:39.319Z,4.20
2019-04-16T16:16:10.479Z,4.78
2019-04-16T16:18:39.863Z,4.75
2019-04-16T16:21:09.363Z,4.62
2019-04-16T16:23:38.803Z,4.80
2019-04-16T16:26:08.241Z,5.65
2019-04-16T16:28:37.621Z,5.35
2019-04-16T16:31:07.127Z,5.17
2019-04-16T16:33:36.495Z,5.20
2019-04-16T16:36:05.948Z,5.87
2019-04-16T16:38:35.355Z,8.13
2019-04-16T16:41:05.083Z,8.75
2019-04-16T16:43:34.532Z,9.80
2019-04-16T16:46:05.560Z,10.75
2019-04-16T16:48:35.046Z,9.73
2019-04-16T16:51:04.619Z,7.50
2019-04-16T16:53:51.862Z,6.33
2019-04-16T16:56:26.037Z,6.53
2019-04-16T16:58:57.039Z,6.85
2019-04-16T17:01:35.096Z,6.70
2019-04-16T17:04:11.782Z,6.72
2019-04-16T17:06:41.136Z,6.20
2019-04-16T17:09:12.157Z,6.00
2019-04-16T17:11:43.196Z,5.85
2019-04-16T17:14:12.662Z,5.97
2019-04-16T17:16:42.092Z,5.87
2019-04-16T17:19:11.554Z,6.22
2019-04-16T17:21:40.976Z,8.63
2019-04-16T17:24:10.416Z,9.48
2019-04-16T17:26:39.848Z,9.30
2019-04-16T17:29:09.293Z,9.58
2019-04-16T17:31:38.803Z,10.13
2019-04-16T17:34:08.278Z,8.90
2019-04-16T17:36:37.631Z,9.80
2019-04-16T17:39:10.475Z,8.95
2019-04-16T17:44:32.674Z,17.70
2019-04-16T17:47:31.382Z,14.18
2019-04-16T17:49:54.273Z,13.45
2019-04-16T17:52:25.288Z,12.68
2019-04-16T17:55:12.515Z,9.00
2019-04-16T17:57:43.517Z,12.82
2019-04-16T18:00:31.461Z,6.05
2019-04-16T18:03:09.869Z,6.75
2019-04-16T18:05:43.621Z,6.22
2019-04-16T18:08:33.143Z,5.87
2019-04-16T18:11:09.846Z,6.28
2019-04-16T18:13:39.656Z,5.50
2019-04-16T18:16:10.735Z,6.03
2019-04-16T18:18:47.639Z,5.92
2019-04-16T18:21:33.863Z,6.00
2019-04-16T18:24:21.013Z,5.97
2019-04-16T18:26:57.746Z,5.78
2019-04-16T18:29:34.241Z,6.62
2019-04-16T18:32:05.240Z,6.95
2019-04-16T18:34:52.358Z,7.10
2019-04-16T18:37:41.827Z,6.90
2019-04-16T18:40:13.024Z,6.97
2019-04-16T18:45:39.676Z,7.25
2019-04-16T18:48:14.182Z,8.18
2019-04-16T18:50:43.802Z,7.92
2019-04-16T18:53:13.164Z,7.80
2019-04-16T18:55:42.540Z,8.70
2019-04-16T18:58:11.963Z,7.25
2019-04-16T19:00:46.659Z,8.00
2019-04-16T19:03:16.087Z,7.35
2019-04-16T19:05:45.635Z,8.35
2019-04-16T19:08:15.154Z,8.43
2019-04-16T19:10:44.689Z,8.85
2019-04-16T19:13:14.035Z,9.03
2019-04-16T19:15:43.492Z,8.65
2019-04-16T19:18:19.786Z,8.85
2019-04-16T19:20:43.987Z,8.10
2019-04-16T19:23:13.408Z,7.92
2019-04-16T19:25:42.833Z,8.35
2019-04-16T19:28:12.210Z,8.68
2019-04-16T19:30:41.574Z,9.05
2019-04-16T19:33:13.049Z,8.38
2019-04-16T19:35:43.999Z,8.60
2019-04-16T19:38:13.402Z,9.35
2019-04-16T19:40:42.868Z,9.00
2019-04-16T19:43:12.311Z,10.03
2019-04-16T19:45:43.640Z,9.95
2019-04-16T19:48:13.038Z,10.53
2019-04-16T19:50:42.501Z,9.95
2019-04-16T19:53:14.905Z,10.08
2019-04-16T19:55:45.806Z,9.68
2019-04-16T19:58:14.529Z,10.90
2019-04-16T20:00:43.889Z,11.28
2019-04-16T20:03:13.330Z,10.58
2019-04-16T20:05:42.758Z,10.35
2019-04-16T20:08:12.127Z,11.50
2019-04-16T20:10:41.510Z,10.72
2019-04-16T20:13:10.953Z,10.68
2019-04-16T20:15:43.322Z,11.57
2019-04-16T20:18:11.473Z,11.33
2019-04-16T20:20:40.834Z,10.82
2019-04-16T20:23:10.209Z,11.00
2019-04-16T20:25:39.562Z,10.78
2019-04-16T20:28:12.655Z,11.78
2019-04-16T20:30:40.076Z,11.53
2019-04-16T20:33:09.446Z,12.47
2019-04-16T20:35:38.811Z,12.00
2019-04-16T20:38:08.256Z,12.68
2019-04-16T20:40:37.704Z,11.45
2019-04-16T20:43:08.005Z,12.65
2019-04-16T20:45:37.441Z,11.00
2019-04-16T20:48:09.185Z,11.33
2019-04-16T20:50:38.127Z,12.33
2019-04-16T20:53:08.484Z,11.08
2019-04-16T20:55:38.090Z,11.25
2019-04-16T20:58:07.524Z,12.18
2019-04-16T21:00:42.251Z,13.93
2019-04-16T21:03:21.537Z,12.85
2019-04-16T21:05:40.778Z,13.62
2019-04-16T21:08:10.224Z,12.18
2019-04-16T21:10:39.593Z,11.80
2019-04-16T21:13:09.023Z,12.10
2019-04-16T21:15:38.631Z,12.13
2019-04-16T21:18:11.898Z,14.35
2019-04-16T21:20:39.172Z,15.48
2019-04-16T21:23:08.531Z,14.28
2019-04-16T21:25:37.901Z,12.40
2019-04-16T21:31:08.277Z,13.38
2019-04-16T21:33:52.303Z,14.10
2019-04-16T21:36:24.146Z,11.68
2019-04-16T21:39:17.084Z,11.95
2019-04-16T21:41:42.811Z,11.60
2019-04-16T21:44:13.309Z,11.73
2019-04-16T21:46:44.343Z,12.45
2019-04-16T21:49:13.774Z,11.80
2019-04-16T21:52:01.602Z,11.97
2019-04-16T21:54:31.447Z,11.93
2019-04-16T21:57:00.970Z,12.40
2019-04-16T21:59:30.332Z,13.22
2019-04-16T22:02:00.174Z,12.37
2019-04-16T22:04:29.565Z,12.70
2019-04-16T22:06:58.998Z,12.95
2019-04-16T22:09:28.357Z,14.10
2019-04-16T22:11:57.710Z,13.00
2019-04-16T22:14:27.155Z,10.88
2019-04-16T22:16:56.524Z,11.03
2019-04-16T22:19:25.872Z,10.13
2019-04-16T22:21:55.302Z,10.58
2019-04-16T22:24:24.656Z,9.60
2019-04-16T22:26:54.185Z,11.10
2019-04-16T22:29:23.536Z,12.03
2019-04-16T22:31:56.962Z,12.53
2019-04-16T22:34:23.972Z,13.18
2019-04-16T22:36:53.344Z,30.75
2019-04-16T22:39:33.375Z,11.63
2019-04-16T22:45:14.818Z,11.40
2019-04-16T22:47:45.827Z,11.70
2019-04-16T22:50:17.261Z,13.93
2019-04-16T22:52:46.269Z,12.37
2019-04-16T22:55:15.687Z,13.58
2019-04-16T22:57:45.111Z,12.75
2019-04-16T23:03:13.182Z,11.00
2019-04-16T23:05:42.527Z,11.65
2019-04-16T23:08:12.990Z,10.78
2019-04-16T23:10:42.594Z,11.68
2019-04-16T23:13:12.031Z,14.35
2019-04-16T23:15:42.255Z,15.23
2019-04-16T23:18:11.640Z,15.20
2019-04-16T23:20:42.605Z,13.03
2019-04-16T23:23:11.965Z,14.10
2019-04-16T23:25:41.382Z,12.00
2019-04-16T23:28:11.752Z,10.58
2019-04-16T23:30:41.166Z,10.93
2019-04-16T23:33:10.531Z,11.97
2019-04-16T23:35:44.404Z,11.83
2019-04-16T23:38:10.996Z,11.10
2019-04-16T23:40:40.714Z,13.78
2019-04-16T23:43:29.251Z,13.00
2019-04-16T23:48:39.615Z,12.37
2019-04-16T23:53:52.498Z,11.70
2019-04-16T23:56:26.322Z,11.88
2019-04-16T23:59:01.440Z,11.60
